Hauptseite
METAR-TAF:

METAR-TAF

Flughäfen :

Flughafen Albert-Picardie

Albert, Frankreich

Breite: 49-58-21N, Länge: 002-41-29E, Höhe: 111 m

Beobachtung

Neuester Wetterbericht von vor 24 Minuten, um 20:00 UTC
Wind 6 kt aus Ost
Temperatur 1°C
Luftfeuchtigkeit 100%
Luftdruck 1026 hPa
Sichtweite: 2600 m
Geschlossene Wolkendecke in der Höhe von 200 ft
feuchter Dunst

METAR: LFAQ 232000Z AUTO 09006KT 2600 BR OVC002 01/01 Q1026

Zeit: 21:24 (20:24 UTC)

Prognose

Neuester Wetterbericht von vor 6 Stunden und 24 Minuten, um 14:00 UTC
Gültige Prognose vom 23 um 15 UTC bis 23 um 24 UTC
Wind 9 kt aus Nordost
Sichtweite: 4500 m
Geschlossene Wolkendecke in der Höhe von 700 ft
feuchter Dunst
Übergehend zu
vom 23 um 21 UTC bis 23 um 24 UTC
Geschlossene Wolkendecke in der Höhe von 300 ft

TAF: LFAQ 231400Z 2315/2324 04009KT 4500 BR OVC007 BECMG 2321/2324 OVC003

Wetterbeobachtungen und Prognosen von mehr als 4000 Flughäfen (METAR und TAF Bericht).

Die verfügbaren Stationen werden durch gelbe und rote Markierungen auf der Karte dargestellt.

Führen Sie die Maus auf sie, um den Namen der Station zu sehen.

Darauf klicken, um die Beobachtung von Wetterbeobachtungen und Prognosen zu sehen.

Um die Karte zu ändern : klicken Sie auf den grünen Tasten mit einem schwarzen Kreuz Zum Vergrößern, auf den grünen Button mit einem Gedankenstrich zu verkleinern, oder auf die grünen Pfeile für benachbarte Karten.


METAR-TAF: